Time;durP1;ratioP1;P1;durP2;ratioP2;P2;SDS_P1;SDS_P2;PMS_P1;PMS_P2;Temp;Humidity;BMP_temperature;BMP_pressure;BME280_temperature;BME280_humidity;BME280_pressure;Samples;Min_cycle;Max_cycle;Signal;HPM_P1;HPM_P2
2022/07/28 00:01:07;;;;;;;5.28;4.15;;;;;;;28.93;41.50;100373.55;1751606;81;21143;-82
2022/07/28 00:03:33;;;;;;;5.15;4.65;;;;;;;28.93;41.53;100365.16;1732002;81;21587;-82
2022/07/28 00:06:00;;;;;;;4.80;4.20;;;;;;;28.93;41.53;100377.75;1741367;81;21268;-82
2022/07/28 00:08:26;;;;;;;4.72;3.95;;;;;;;28.93;41.53;100380.55;1751721;80;21073;-83
2022/07/28 00:10:53;;;;;;;4.67;4.17;;;;;;;28.92;41.55;100378.94;1751484;80;21519;-82
2022/07/28 00:13:19;;;;;;;6.33;4.08;;;;;;;28.92;41.55;100383.14;1751533;81;21990;-82
2022/07/28 00:15:46;;;;;;;5.12;4.53;;;;;;;28.92;41.59;100383.73;1741382;82;21058;-81
2022/07/28 00:18:12;;;;;;;5.35;3.95;;;;;;;28.92;41.60;100388.73;1751462;80;20996;-82
2022/07/28 00:20:39;;;;;;;5.40;4.12;;;;;;;28.91;41.63;100384.32;1751634;80;21588;-81
2022/07/28 00:23:11;;;;;;;5.00;4.45;;;;;;;28.93;41.66;100389.55;1751781;80;21071;-82
2022/07/28 00:25:37;;;;;;;4.50;4.10;;;;;;;28.92;41.66;100387.93;1751529;80;21187;-83
2022/07/28 00:28:04;;;;;;;5.60;3.92;;;;;;;28.91;41.66;100391.32;1751626;81;21021;-83
2022/07/28 00:30:30;;;;;;;4.83;4.40;;;;;;;28.90;41.67;100393.91;1751439;80;21034;-83
2022/07/28 00:32:56;;;;;;;6.40;4.35;;;;;;;28.92;41.67;100394.93;1751283;80;21014;-82
2022/07/28 00:35:23;;;;;;;5.80;4.17;;;;;;;28.90;41.65;100388.30;1751493;80;21650;-82
2022/07/28 00:37:50;;;;;;;4.67;4.08;;;;;;;28.90;41.66;100391.10;1751768;80;21256;-81
2022/07/28 00:41:09;;;;;;;5.30;4.05;;;;;;;28.90;41.66;100392.50;1751206;80;21009;-81
2022/07/28 00:42:50;;;;;;;4.67;4.15;;;;;;;28.91;41.69;100396.11;1748829;80;21076;-83
2022/07/28 00:45:16;;;;;;;4.55;4.15;;;;;;;28.91;41.71;100404.52;1722338;82;20999;-83
2022/07/28 00:47:43;;;;;;;6.03;4.25;;;;;;;28.90;41.72;100393.09;1751587;80;21172;-83
2022/07/28 00:50:10;;;;;;;4.67;4.28;;;;;;;28.90;41.73;100401.50;1751740;80;21638;-83
2022/07/28 00:52:36;;;;;;;5.40;4.20;;;;;;;28.89;41.75;100399.31;1751536;81;21148;-83
2022/07/28 00:55:04;;;;;;;4.67;4.17;;;;;;;28.89;41.75;100403.52;1751397;80;21093;-83
2022/07/28 00:57:30;;;;;;;4.35;3.95;;;;;;;28.89;41.74;100397.92;1751440;81;21473;-82
2022/07/28 00:59:57;;;;;;;4.67;4.17;;;;;;;28.90;41.76;100397.30;1724669;80;21023;-82
2022/07/28 01:02:23;;;;;;;4.22;3.83;;;;;;;28.88;41.77;100396.30;1712772;83;21373;-83
2022/07/28 01:04:49;;;;;;;4.83;4.00;;;;;;;28.89;41.78;100393.72;1713162;83;21043;-83
2022/07/28 01:07:40;;;;;;;4.87;4.20;;;;;;;28.88;41.81;100392.09;1713273;83;21059;-83
2022/07/28 01:10:11;;;;;;;4.95;4.28;;;;;;;28.88;41.83;100394.90;1713207;83;20988;-83
2022/07/28 01:12:52;;;;;;;4.55;4.15;;;;;;;28.87;41.81;100399.47;1713152;82;21044;-83
2022/07/28 01:15:41;;;;;;;4.62;4.20;;;;;;;28.88;41.83;100403.89;1712768;82;21185;-83
2022/07/28 01:18:22;;;;;;;4.87;4.20;;;;;;;28.87;41.82;100407.28;1694723;83;21005;-83
2022/07/28 01:21:06;;;;;;;4.55;3.75;;;;;;;28.86;41.80;100402.86;1712755;83;20996;-83
2022/07/28 01:24:16;;;;;;;6.05;4.17;;;;;;;28.86;41.83;100404.27;1710673;82;21036;-83
2022/07/28 01:26:57;;;;;;;4.67;4.05;;;;;;;28.86;41.84;100403.45;1712956;82;21064;-83
2022/07/28 01:29:34;;;;;;;4.37;3.98;;;;;;;28.85;41.82;100403.27;1712959;82;21122;-83
2022/07/28 01:32:08;;;;;;;4.67;3.67;;;;;;;28.84;41.84;100408.65;1712636;82;21070;-83
2022/07/28 01:34:40;;;;;;;5.30;4.05;;;;;;;28.83;41.88;100409.23;1720841;81;21124;-83
2022/07/28 01:37:12;;;;;;;4.47;4.08;;;;;;;28.83;41.91;100406.44;1691724;83;20993;-83
2022/07/28 01:39:41;;;;;;;4.72;4.22;;;;;;;28.83;41.94;100405.04;1720277;82;21170;-83
2022/07/28 01:42:13;;;;;;;3.98;3.67;;;;;;;28.84;41.96;100411.45;1720214;83;21136;-82
2022/07/28 01:44:44;;;;;;;4.37;3.98;;;;;;;28.83;41.98;100405.63;1719838;83;21013;-82
2022/07/28 01:47:10;;;;;;;4.15;3.75;;;;;;;28.83;42.00;100399.44;1720323;83;21563;-83
2022/07/28 01:49:37;;;;;;;6.50;4.10;;;;;;;28.82;42.00;100404.82;1719834;83;21036;-82
2022/07/28 01:52:06;;;;;;;4.20;3.70;;;;;;;28.83;42.00;100395.83;1720042;83;21130;-83
2022/07/28 01:54:34;;;;;;;4.55;3.95;;;;;;;28.83;42.00;100392.44;1719983;83;21576;-82
2022/07/28 01:57:00;;;;;;;4.20;3.80;;;;;;;28.83;41.98;100394.43;1720303;83;21096;-83
2022/07/28 01:59:27;;;;;;;4.10;3.70;;;;;;;28.83;41.97;100400.03;1718816;83;21120;-82
2022/07/28 02:01:54;;;;;;;4.72;4.10;;;;;;;28.83;41.98;100400.03;1727889;82;21049;-82
2022/07/28 02:04:20;;;;;;;4.20;3.80;;;;;;;28.82;42.00;100404.82;1727985;81;20995;-82
2022/07/28 02:06:47;;;;;;;4.53;4.03;;;;;;;28.83;42.00;100414.03;1727903;81;21123;-81
2022/07/28 02:09:14;;;;;;;5.60;4.00;;;;;;;28.82;42.03;100415.21;1728062;83;21038;-82
2022/07/28 02:11:41;;;;;;;5.92;4.10;;;;;;;28.82;42.07;100418.82;1748555;80;20952;-82
2022/07/28 02:14:14;;;;;;;4.00;3.60;;;;;;;28.82;42.07;100417.42;1727568;81;21017;-82
2022/07/28 02:16:44;;;;;;;4.45;4.00;;;;;;;28.83;42.07;100421.84;1728016;81;21100;-82
2022/07/28 02:19:10;;;;;;;4.55;3.58;;;;;;;28.83;42.05;100423.23;1727908;81;21097;-82
2022/07/28 02:21:37;;;;;;;4.30;3.90;;;;;;;28.82;42.08;100423.61;1748645;82;21446;-82
2022/07/28 02:24:04;;;;;;;6.83;3.77;;;;;;;28.83;42.08;100429.43;1727782;81;21082;-82
2022/07/28 02:26:35;;;;;;;4.20;3.80;;;;;;;28.82;42.09;100429.21;1748315;81;21473;-82
2022/07/28 02:29:03;;;;;;;4.00;3.60;;;;;;;28.82;42.10;100435.62;1727048;81;21052;-83
2022/07/28 02:31:42;;;;;;;4.37;3.98;;;;;;;28.82;42.11;100441.22;1759147;80;21133;-82
2022/07/28 02:34:11;;;;;;;4.40;3.77;;;;;;;28.81;42.10;100439.63;1758732;80;20991;-83
2022/07/28 02:36:40;;;;;;;5.03;3.92;;;;;;;28.81;42.09;100443.83;1759194;81;21111;-83
2022/07/28 02:39:15;;;;;;;4.55;3.87;;;;;;;28.81;42.08;100446.63;1759114;80;21490;-82
2022/07/28 02:41:41;;;;;;;4.12;3.72;;;;;;;28.82;42.10;100449.63;1757267;81;21034;-82
2022/07/28 02:44:15;;;;;;;4.37;3.95;;;;;;;28.81;42.13;100451.42;1759213;80;21118;-83
2022/07/28 02:46:47;;;;;;;4.50;3.45;;;;;;;28.81;42.13;100454.22;1759003;80;21077;-82
2022/07/28 02:49:23;;;;;;;4.05;3.55;;;;;;;28.80;42.12;100453.41;1758794;81;21030;-82
2022/07/28 02:51:50;;;;;;;4.10;3.70;;;;;;;28.80;42.11;100453.41;1759192;80;21046;-82
2022/07/28 02:54:17;;;;;;;4.22;3.83;;;;;;;28.81;42.14;100450.02;1758791;80;21105;-82
2022/07/28 02:56:43;;;;;;;6.30;3.62;;;;;;;28.80;42.16;100449.22;1759267;80;21600;-82
2022/07/28 02:59:09;;;;;;;4.55;3.70;;;;;;;28.80;42.18;100447.00;1733697;81;20991;-83
2022/07/28 03:01:36;;;;;;;4.08;3.77;;;;;;;28.79;42.19;100453.19;1758882;80;21014;-83
2022/07/28 03:04:02;;;;;;;3.90;3.50;;;;;;;28.79;42.21;100453.19;1759090;80;21026;-82
2022/07/28 03:06:29;;;;;;;4.83;3.77;;;;;;;28.79;42.23;100454.59;1759098;80;21106;-83
2022/07/28 03:08:56;;;;;;;4.20;3.62;;;;;;;28.79;42.25;100457.98;1758910;80;21237;-82
2022/07/28 03:11:22;;;;;;;3.87;3.55;;;;;;;28.79;42.25;100463.58;1759091;80;21462;-82
2022/07/28 03:13:49;;;;;;;3.62;3.33;;;;;;;28.79;42.25;100462.19;1730039;81;21098;-82
2022/07/28 03:16:15;;;;;;;3.65;3.33;;;;;;;28.78;42.24;100459.97;1758923;80;21086;-82
2022/07/28 03:18:42;;;;;;;3.92;3.42;;;;;;;28.79;42.25;100457.39;1759291;80;21093;-83
2022/07/28 03:21:08;;;;;;;4.00;3.62;;;;;;;28.79;42.25;100463.58;1759161;80;21060;-82
2022/07/28 03:23:43;;;;;;;4.00;3.60;;;;;;;28.78;42.24;100465.58;1758966;80;21438;-82
2022/07/28 03:26:20;;;;;;;3.80;3.50;;;;;;;28.78;42.24;100460.56;1759238;80;21042;-82
2022/07/28 03:28:47;;;;;;;4.17;3.67;;;;;;;28.78;42.25;100452.98;1735135;81;21552;-82
2022/07/28 03:31:14;;;;;;;3.70;3.40;;;;;;;28.77;42.25;100445.75;1759170;80;21089;-81
2022/07/28 03:33:40;;;;;;;4.58;3.62;;;;;;;28.77;42.26;100448.55;1759358;80;21051;-82
2022/07/28 03:36:14;;;;;;;3.65;3.30;;;;;;;28.78;42.28;100456.36;1758791;80;21054;-82
2022/07/28 03:38:48;;;;;;;4.50;3.25;;;;;;;28.77;42.31;100451.36;1759202;80;20979;-82
2022/07/28 03:41:15;;;;;;;4.45;3.58;;;;;;;28.77;42.31;100467.37;1750385;81;21003;-82
2022/07/28 03:43:41;;;;;;;6.12;3.22;;;;;;;28.77;42.32;100461.78;1759201;80;21066;-83
2022/07/28 03:46:08;;;;;;;4.05;3.40;;;;;;;28.76;42.31;100468.55;1759228;81;21473;-82
2022/07/28 03:48:34;;;;;;;4.33;3.35;;;;;;;28.76;42.35;100475.55;1759045;80;21042;-83
2022/07/28 03:51:01;;;;;;;4.12;3.62;;;;;;;28.76;42.33;100479.75;1759279;80;21015;-83
2022/07/28 03:53:28;;;;;;;3.70;3.40;;;;;;;28.78;42.32;100478.77;1759018;80;21450;-82
2022/07/28 03:55:54;;;;;;;3.85;3.20;;;;;;;28.76;42.32;100479.75;1758629;80;21073;-81
2022/07/28 03:58:24;;;;;;;3.67;3.30;;;;;;;28.77;42.31;100478.58;1759053;80;21135;-82
2022/07/28 04:00:51;;;;;;;3.65;3.35;;;;;;;28.76;42.32;100475.55;1758285;80;21316;-82
2022/07/28 04:03:17;;;;;;;4.17;3.12;;;;;;;28.78;42.31;100477.36;1758616;80;21633;-82
2022/07/28 04:05:44;;;;;;;3.55;3.22;;;;;;;28.76;42.31;100469.36;1759141;80;21557;-81
2022/07/28 04:08:11;;;;;;;3.90;3.52;;;;;;;28.77;42.35;100477.17;1759162;80;21058;-82
2022/07/28 04:10:37;;;;;;;3.65;3.35;;;;;;;28.77;42.35;100474.37;1758739;80;21221;-82
2022/07/28 04:13:04;;;;;;;4.45;3.20;;;;;;;28.77;42.36;100476.55;1759080;80;21046;-82
2022/07/28 04:15:31;;;;;;;3.20;2.90;;;;;;;28.76;42.38;100476.95;1759287;80;21029;-81
2022/07/28 04:17:58;;;;;;;3.60;3.30;;;;;;;28.76;42.38;100479.16;1758893;80;21621;-82
2022/07/28 04:20:25;;;;;;;3.90;3.50;;;;;;;28.76;42.38;100478.36;1758986;80;21098;-81
2022/07/28 04:22:52;;;;;;;3.75;3.30;;;;;;;28.76;42.36;100488.16;1759179;80;21073;-82
2022/07/28 04:25:21;;;;;;;3.45;3.12;;;;;;;28.77;42.35;100492.58;1758779;80;21527;-81
2022/07/28 04:27:48;;;;;;;3.98;3.42;;;;;;;28.77;42.36;100499.57;1759210;80;21077;-82
2022/07/28 04:30:17;;;;;;;3.95;3.52;;;;;;;28.76;42.35;100507.75;1759117;80;21537;-82
2022/07/28 04:32:44;;;;;;;3.40;3.08;;;;;;;28.77;42.36;100512.17;1759150;80;20991;-82
2022/07/28 04:35:17;;;;;;;3.60;3.22;;;;;;;28.76;42.37;100518.36;1759117;80;21175;-83
2022/07/28 04:37:43;;;;;;;3.90;3.33;;;;;;;28.75;42.39;100519.54;1759292;80;21030;-83
2022/07/28 04:40:10;;;;;;;5.10;3.50;;;;;;;28.76;42.39;100531.55;1759317;80;21041;-84
2022/07/28 04:42:37;;;;;;;3.47;3.17;;;;;;;28.76;42.42;100534.34;1759468;81;21050;-82
2022/07/28 04:45:12;;;;;;;3.95;3.30;;;;;;;28.76;42.42;100532.95;1759457;81;21007;-83
2022/07/28 04:47:45;;;;;;;3.77;3.47;;;;;;;28.76;42.41;100542.75;1759381;80;21289;-83
2022/07/28 04:50:14;;;;;;;3.20;2.90;;;;;;;28.75;42.42;100546.14;1759214;81;21096;-83
2022/07/28 04:52:40;;;;;;;4.17;3.17;;;;;;;28.74;42.43;100548.72;1759288;80;21022;-81
2022/07/28 04:55:12;;;;;;;3.50;3.15;;;;;;;28.74;42.42;100548.72;1728669;82;21881;-83
2022/07/28 04:57:38;;;;;;;3.25;2.95;;;;;;;28.75;42.44;100547.54;1729323;81;21576;-83
2022/07/28 05:00:13;;;;;;;3.98;3.58;;;;;;;28.75;42.43;100545.33;1727812;81;21748;-83
2022/07/28 05:02:40;;;;;;;3.75;3.35;;;;;;;28.74;42.46;100543.12;1720679;81;21107;-83
2022/07/28 05:05:07;;;;;;;4.45;3.35;;;;;;;28.69;42.53;100539.21;1718898;82;21262;-83
2022/07/28 05:07:34;;;;;;;3.92;3.27;;;;;;;28.64;42.67;100549.95;1718660;83;21111;-82
2022/07/28 05:10:00;;;;;;;4.28;3.60;;;;;;;28.57;42.76;100549.25;1743940;82;21019;-83
2022/07/28 05:12:27;;;;;;;6.62;3.50;;;;;;;28.51;42.82;100553.58;1694121;84;20992;-83
2022/07/28 05:14:53;;;;;;;4.17;3.30;;;;;;;28.44;42.95;100552.86;1715711;83;21008;-82
2022/07/28 05:17:20;;;;;;;3.87;3.35;;;;;;;28.39;43.03;100554.58;1724433;83;21000;-82
2022/07/28 05:19:46;;;;;;;3.47;3.10;;;;;;;28.35;43.15;100556.52;1723167;83;21024;-82
2022/07/28 05:22:13;;;;;;;5.78;3.35;;;;;;;28.31;43.27;100556.24;1696260;83;21561;-82
2022/07/28 05:24:39;;;;;;;4.35;3.67;;;;;;;28.25;43.31;100557.17;1722111;81;21502;-82
2022/07/28 05:27:06;;;;;;;4.97;3.67;;;;;;;28.21;43.41;100563.31;1722169;81;21047;-82
2022/07/28 05:29:33;;;;;;;5.08;3.42;;;;;;;28.18;43.52;100577.24;1722403;81;21039;-82
2022/07/28 05:31:59;;;;;;;3.80;3.40;;;;;;;28.14;43.58;100582.17;1720956;81;21140;-81
2022/07/28 05:34:26;;;;;;;4.80;3.20;;;;;;;28.12;43.64;100592.94;1711137;83;21081;-82
2022/07/28 05:36:52;;;;;;;8.18;3.50;;;;;;;28.09;43.70;100595.65;1722081;81;22169;-82
2022/07/28 05:39:19;;;;;;;4.90;3.17;;;;;;;28.07;43.77;100607.20;1722073;81;22520;-83
2022/07/28 05:41:51;;;;;;;3.85;3.42;;;;;;;28.03;43.91;100604.94;1722046;81;21558;-82
2022/07/28 05:44:18;;;;;;;6.05;3.35;;;;;;;28.03;43.96;100607.73;1743241;80;21025;-83
2022/07/28 05:46:44;;;;;;;5.53;3.60;;;;;;;28.03;43.98;100613.32;1721444;81;21056;-82
2022/07/28 05:49:11;;;;;;;4.70;4.00;;;;;;;28.01;44.01;100612.88;1743248;80;21981;-82
2022/07/28 05:51:37;;;;;;;7.55;3.75;;;;;;;28.01;44.06;100619.86;1720975;81;21111;-83
2022/07/28 05:54:04;;;;;;;6.30;3.72;;;;;;;28.01;44.06;100615.67;1720808;81;21056;-83
2022/07/28 05:56:30;;;;;;;5.50;3.77;;;;;;;28.01;44.13;100610.66;1721633;83;21040;-83
2022/07/28 05:58:57;;;;;;;5.33;3.77;;;;;;;27.99;44.18;100611.64;1742798;80;21052;-82
2022/07/28 06:01:23;;;;;;;3.92;3.52;;;;;;;27.95;44.22;100618.58;1705446;81;21052;-82
2022/07/28 06:03:51;;;;;;;4.12;3.35;;;;;;;27.91;44.30;100612.11;1696061;82;21035;-82
2022/07/28 06:06:19;;;;;;;7.17;3.62;;;;;;;27.90;44.33;100614.68;1696274;82;21051;-83
2022/07/28 06:08:45;;;;;;;4.65;3.45;;;;;;;27.87;44.40;100614.03;1696127;82;21127;-82
2022/07/28 06:11:15;;;;;;;4.72;3.37;;;;;;;27.86;44.44;100621.39;1696636;84;21526;-82
2022/07/28 06:13:45;;;;;;;4.65;3.37;;;;;;;27.85;44.50;100618.37;1696339;84;21513;-82
2022/07/28 06:16:10;;;;;;;5.62;3.92;;;;;;;27.83;44.53;100617.36;1696208;84;21358;-83
2022/07/28 06:18:37;;;;;;;4.15;3.37;;;;;;;27.82;44.58;100618.53;1696487;83;21546;-83
2022/07/28 06:21:03;;;;;;;5.08;3.98;;;;;;;27.81;44.63;100618.30;1696762;83;21056;-83
2022/07/28 06:23:30;;;;;;;4.30;3.72;;;;;;;27.80;44.69;100618.66;1696069;82;21562;-83
2022/07/28 06:25:56;;;;;;;7.87;3.80;;;;;;;27.79;44.72;100617.89;1698046;82;21124;-83
2022/07/28 06:28:22;;;;;;;5.15;3.75;;;;;;;27.80;44.73;100613.89;1699908;83;21069;-83
2022/07/28 06:30:49;;;;;;;5.10;3.52;;;;;;;27.79;44.77;100617.89;1699610;84;21492;-83
2022/07/28 06:33:16;;;;;;;4.92;3.58;;;;;;;27.79;44.82;100619.87;1698643;83;21119;-82
2022/07/28 06:35:43;;;;;;;6.37;4.03;;;;;;;27.78;44.86;100619.64;1695053;84;21645;-82
2022/07/28 06:38:09;;;;;;;5.55;3.92;;;;;;;27.78;44.95;100620.45;1696491;84;21127;-82
2022/07/28 06:40:36;;;;;;;6.42;3.65;;;;;;;27.74;45.30;100611.20;1696663;84;21084;-82
2022/07/28 06:43:02;;;;;;;6.67;4.00;;;;;;;27.69;45.55;100622.09;1696690;84;21518;-83
2022/07/28 06:45:29;;;;;;;6.65;4.00;;;;;;;27.67;45.82;100631.42;1696354;84;21051;-82
2022/07/28 06:47:56;;;;;;;6.75;3.92;;;;;;;27.65;45.96;100637.17;1696590;84;21087;-82
2022/07/28 06:50:22;;;;;;;15.20;4.28;;;;;;;27.62;46.16;100633.73;1695726;83;21100;-82
2022/07/28 06:52:49;;;;;;;11.85;4.12;;;;;;;27.62;46.34;100639.31;1695621;83;21031;-83
2022/07/28 06:55:15;;;;;;;6.30;3.72;;;;;;;27.63;46.54;100652.91;1699861;83;21073;-82
2022/07/28 06:57:42;;;;;;;7.17;3.83;;;;;;;27.65;46.61;100649.75;1696854;83;21051;-83
2022/07/28 07:00:12;;;;;;;6.10;3.80;;;;;;;27.66;46.71;100650.78;1696515;84;21047;-82
2022/07/28 07:02:41;;;;;;;6.95;4.12;;;;;;;27.68;46.79;100651.21;1696280;83;21299;-83
2022/07/28 07:05:08;;;;;;;5.40;4.12;;;;;;;27.68;46.92;100655.41;1696820;82;21475;-83
2022/07/28 07:07:34;;;;;;;5.28;4.30;;;;;;;27.70;47.06;100664.24;1696162;84;21555;-83
2022/07/28 07:10:03;;;;;;;4.10;3.70;;;;;;;27.71;47.17;100658.85;1696353;82;21110;-82
2022/07/28 07:12:34;;;;;;;6.85;3.80;;;;;;;27.75;47.24;100656.15;1696081;83;21123;-82
2022/07/28 07:15:05;;;;;;;6.03;4.10;;;;;;;27.75;47.30;100650.56;1696366;83;21174;-83
2022/07/28 07:17:31;;;;;;;4.60;4.10;;;;;;;27.77;47.40;100651.56;1695995;82;21172;-81
2022/07/28 07:19:58;;;;;;;6.62;3.60;;;;;;;27.76;47.50;100642.36;1695956;82;21032;-82
2022/07/28 07:22:24;;;;;;;6.12;3.70;;;;;;;27.77;47.51;100647.37;1696238;82;21110;-82
2022/07/28 07:24:51;;;;;;;8.03;3.95;;;;;;;27.76;47.55;100645.16;1696314;82;21302;-83
2022/07/28 07:27:17;;;;;;;7.60;3.72;;;;;;;27.76;47.63;100643.77;1696763;84;21126;-83
2022/07/28 07:29:45;;;;;;;6.67;3.70;;;;;;;27.75;47.70;100642.17;1696282;83;21013;-83
2022/07/28 07:32:11;;;;;;;4.85;3.65;;;;;;;27.76;47.70;100647.95;1696648;83;21048;-83
2022/07/28 07:34:38;;;;;;;6.08;3.62;;;;;;;27.74;47.75;100647.53;1695186;84;21030;-83
2022/07/28 07:37:06;;;;;;;5.22;3.60;;;;;;;27.75;47.73;100636.58;1696501;82;21059;-85
2022/07/28 07:39:35;;;;;;;3.85;3.35;;;;;;;27.75;47.71;100642.17;1696154;84;21154;-83
2022/07/28 07:42:02;;;;;;;7.50;3.50;;;;;;;27.75;47.73;100637.16;1695734;83;21107;-83
2022/07/28 07:44:28;;;;;;;5.70;3.65;;;;;;;27.74;47.74;100639.15;1695808;82;21062;-83
2022/07/28 07:46:55;;;;;;;4.83;3.58;;;;;;;27.74;47.76;100641.95;1695915;82;21150;-83
2022/07/28 07:49:21;;;;;;;5.50;3.77;;;;;;;27.73;47.84;100637.52;1696007;82;21059;-83
2022/07/28 07:51:49;;;;;;;4.80;3.52;;;;;;;27.72;47.90;100641.48;1689863;84;21175;-83
2022/07/28 07:54:16;;;;;;;6.83;3.55;;;;;;;27.73;47.85;100643.11;1670296;84;21116;-83
2022/07/28 07:56:42;;;;;;;3.95;3.33;;;;;;;27.73;47.83;100638.92;1695800;82;21055;-83
2022/07/28 07:59:09;;;;;;;4.87;3.58;;;;;;;27.74;47.77;100641.95;1695438;83;21528;-84
2022/07/28 08:01:35;;;;;;;5.05;3.47;;;;;;;27.75;47.75;100638.56;1698161;82;21110;-83
2022/07/28 08:04:02;;;;;;;4.05;3.17;;;;;;;27.75;47.74;100636.58;1748161;80;21914;-84
2022/07/28 08:06:28;;;;;;;5.92;3.30;;;;;;;27.75;47.75;100635.77;1756287;80;21649;-83
2022/07/28 08:08:55;;;;;;;4.45;3.58;;;;;;;27.76;47.76;100642.95;1763813;80;21491;-83
2022/07/28 08:11:21;;;;;;;4.75;3.50;;;;;;;27.75;47.79;100644.97;1761096;80;21521;-83
2022/07/28 08:13:48;;;;;;;4.72;3.67;;;;;;;27.76;47.76;100642.36;1721916;82;21617;-83
2022/07/28 08:16:14;;;;;;;5.30;3.72;;;;;;;27.79;47.77;100640.25;1718866;82;21648;-84
2022/07/28 08:18:41;;;;;;;5.08;3.55;;;;;;;27.79;47.79;100640.25;1718862;83;20998;-84
2022/07/28 08:21:08;;;;;;;5.50;3.72;;;;;;;27.80;47.77;100640.45;1719825;82;21078;-83
2022/07/28 08:23:34;;;;;;;4.10;3.40;;;;;;;27.78;47.76;100640.61;1722587;81;21536;-83
2022/07/28 08:26:02;;;;;;;6.28;4.03;;;;;;;27.80;47.75;100656.41;1747552;80;21709;-83
2022/07/28 08:28:29;;;;;;;6.35;3.77;;;;;;;27.80;47.77;100662.81;1746879;80;21187;-84
2022/07/28 08:30:55;;;;;;;5.70;3.67;;;;;;;27.80;47.75;100657.22;1748513;80;21094;-84
2022/07/28 08:33:22;;;;;;;5.67;3.22;;;;;;;27.81;47.73;100659.43;1748611;80;21779;-84
2022/07/28 08:35:49;;;;;;;4.10;3.70;;;;;;;27.80;47.71;100664.20;1748574;80;21043;-84
2022/07/28 08:38:21;;;;;;;3.37;3.08;;;;;;;27.80;47.68;100660.02;1748850;80;21062;-83
2022/07/28 08:40:49;;;;;;;5.33;3.55;;;;;;;27.81;47.67;100658.84;1748339;82;21078;-84
2022/07/28 08:43:37;;;;;;;4.22;3.17;;;;;;;27.81;47.65;100660.83;1744610;81;21058;-83
2022/07/28 08:46:05;;;;;;;4.90;3.27;;;;;;;27.80;47.64;100668.41;1736854;80;21624;-83
2022/07/28 08:48:35;;;;;;;5.17;3.20;;;;;;;27.79;47.65;100673.80;1748162;80;21049;-82
2022/07/28 08:51:05;;;;;;;7.42;3.95;;;;;;;27.81;47.66;100680.40;1747020;80;21371;-83
2022/07/28 08:53:35;;;;;;;5.25;3.40;;;;;;;27.81;47.68;100675.62;1746698;80;21180;-83
2022/07/28 08:56:07;;;;;;;5.22;3.70;;;;;;;27.82;47.72;100671.65;1746676;80;21303;-84
2022/07/28 08:58:35;;;;;;;3.77;3.40;;;;;;;27.83;47.72;100683.65;1747688;80;21556;-82
2022/07/28 09:01:01;;;;;;;7.12;3.58;;;;;;;27.84;47.71;100687.45;1747870;80;21544;-83
2022/07/28 09:03:28;;;;;;;8.53;3.12;;;;;;;27.84;47.69;100684.66;1722483;83;21576;-82
2022/07/28 09:05:55;;;;;;;5.03;3.25;;;;;;;27.83;47.69;100675.26;1750061;80;21658;-83
2022/07/28 09:08:22;;;;;;;4.60;3.27;;;;;;;27.83;47.65;100684.45;1760810;80;20939;-82
2022/07/28 09:10:49;;;;;;;4.55;3.30;;;;;;;27.84;47.62;100684.66;1722943;81;21432;-83
2022/07/28 09:13:16;;;;;;;3.12;2.83;;;;;;;27.86;47.61;100690.70;1751218;80;21105;-83
2022/07/28 09:15:45;;;;;;;4.20;3.05;;;;;;;27.87;47.58;100692.91;1751142;80;21019;-83
2022/07/28 09:18:17;;;;;;;4.28;3.50;;;;;;;27.87;47.56;100693.72;1751161;80;20987;-84
2022/07/28 09:20:44;;;;;;;4.35;3.00;;;;;;;27.89;47.53;100688.55;1746710;80;21070;-83
2022/07/28 09:23:10;;;;;;;3.87;2.80;;;;;;;27.89;47.50;100687.16;1751062;82;21082;-84
2022/07/28 09:25:37;;;;;;;5.40;3.12;;;;;;;27.91;47.47;100689.00;1751299;80;21232;-84
2022/07/28 09:28:13;;;;;;;6.58;3.30;;;;;;;27.91;47.45;100686.80;1751276;80;21572;-84
2022/07/28 09:30:41;;;;;;;6.83;3.20;;;;;;;27.92;47.40;100685.63;1751131;81;21090;-84
2022/07/28 09:33:20;;;;;;;3.70;3.10;;;;;;;27.93;47.35;100681.63;1750567;81;21102;-83
2022/07/28 09:35:56;;;;;;;5.87;3.50;;;;;;;27.93;47.32;100681.04;1749696;80;21097;-84
2022/07/28 09:38:24;;;;;;;3.52;3.10;;;;;;;27.95;47.30;100678.70;1751003;81;20984;-83
2022/07/28 09:41:03;;;;;;;4.53;3.33;;;;;;;27.95;47.31;100677.30;1692297;83;21108;-83
2022/07/28 09:43:41;;;;;;;4.05;3.10;;;;;;;27.97;47.26;100677.72;1751412;80;21062;-84
2022/07/28 09:46:12;;;;;;;3.27;2.98;;;;;;;28.02;47.20;100670.43;1750870;81;21123;-84
2022/07/28 09:48:55;;;;;;;3.83;2.87;;;;;;;28.05;47.11;100679.47;1751377;80;21077;-83
2022/07/28 09:51:30;;;;;;;3.50;3.20;;;;;;;28.08;47.04;100678.75;1750809;80;21133;-82
2022/07/28 09:54:07;;;;;;;;;;;;;;;28.11;46.96;100671.62;1752518;80;21101;-82
2022/07/28 09:56:34;;;;;;;3.40;3.08;;;;;;;28.15;46.83;100679.48;1748497;80;21100;-82
2022/07/28 09:59:02;;;;;;;2.98;2.50;;;;;;;28.15;46.81;100671.09;1749973;80;21539;-82
2022/07/28 10:01:28;;;;;;;4.30;3.10;;;;;;;28.18;46.75;100677.33;1751946;80;21046;-82
2022/07/28 10:03:56;;;;;;;3.17;2.60;;;;;;;28.21;46.66;100674.39;1757313;80;21102;-82
2022/07/28 10:06:30;;;;;;;6.83;3.27;;;;;;;28.24;46.59;100676.44;1760227;80;21066;-83
2022/07/28 10:09:01;;;;;;;3.70;3.02;;;;;;;28.25;46.58;100671.06;1760007;80;21065;-83
2022/07/28 10:11:29;;;;;;;7.95;3.60;;;;;;;28.24;46.53;100661.86;1727367;81;21104;-83
2022/07/28 10:14:03;;;;;;;4.25;3.30;;;;;;;28.27;46.56;100660.30;1759009;80;21749;-82
2022/07/28 10:16:41;;;;;;;3.65;3.00;;;;;;;28.28;46.56;100662.73;1758890;80;20967;-83
2022/07/28 10:19:08;;;;;;;4.92;3.05;;;;;;;28.31;46.48;100654.17;1759124;81;21081;-82
2022/07/28 10:21:42;;;;;;;5.78;3.20;;;;;;;28.32;46.40;100665.58;1758697;80;21114;-82
2022/07/28 10:24:09;;;;;;;3.92;3.40;;;;;;;28.35;46.32;100664.23;1727824;83;21042;-83
2022/07/28 10:26:43;;;;;;;4.17;3.08;;;;;;;28.37;46.29;100668.89;1759083;80;21058;-81
2022/07/28 10:29:15;;;;;;;5.15;2.80;;;;;;;28.39;46.28;100665.11;1724284;81;21175;-82
2022/07/28 10:31:54;;;;;;;2.95;2.65;;;;;;;28.41;46.21;100667.55;1728922;81;20957;-83
2022/07/28 10:34:30;;;;;;;3.47;2.92;;;;;;;28.42;46.11;100662.17;1748235;81;21525;-83
2022/07/28 10:36:57;;;;;;;3.70;3.10;;;;;;;28.44;46.06;100662.59;1758264;80;21026;-83
2022/07/28 10:39:26;;;;;;;3.80;2.95;;;;;;;28.45;45.98;100660.83;1756232;80;21556;-82
2022/07/28 10:41:58;;;;;;;5.65;3.00;;;;;;;28.45;45.97;100657.22;1752754;80;21083;-83
2022/07/28 10:44:25;;;;;;;5.33;3.00;;;;;;;28.46;45.93;100658.84;1757338;81;21055;-83
2022/07/28 10:46:51;;;;;;;5.17;2.95;;;;;;;28.47;45.92;100661.86;1757183;81;21104;-83
2022/07/28 10:49:18;;;;;;;2.92;2.62;;;;;;;28.48;45.91;100657.86;1757363;81;21011;-83
2022/07/28 10:51:45;;;;;;;3.35;3.00;;;;;;;28.49;45.87;100656.68;1757032;81;21051;-83
2022/07/28 10:54:25;;;;;;;3.95;2.60;;;;;;;28.49;45.93;100657.49;1756800;80;21582;-83
2022/07/28 10:56:57;;;;;;;5.08;3.02;;;;;;;28.50;45.92;100654.91;1757489;81;21055;-83
2022/07/28 10:59:35;;;;;;;3.60;3.30;;;;;;;28.52;45.88;100655.92;1756663;81;21824;-83
2022/07/28 11:02:02;;;;;;;3.50;2.70;;;;;;;28.53;45.85;100666.75;1757350;81;21076;-83
2022/07/28 11:04:51;;;;;;;4.90;3.00;;;;;;;28.53;45.83;100653.34;1757286;81;21044;-83
2022/07/28 11:07:17;;;;;;;4.42;2.92;;;;;;;28.53;45.81;100652.76;1757394;81;21020;-83
2022/07/28 11:09:46;;;;;;;3.08;2.80;;;;;;;28.54;45.81;100641.78;1758364;80;21046;-84
2022/07/28 11:12:14;;;;;;;3.37;3.00;;;;;;;28.55;45.80;100643.41;1717822;82;21832;-82
2022/07/28 11:14:41;;;;;;;3.05;2.55;;;;;;;28.56;45.78;100645.59;1730261;81;21110;-82
2022/07/28 11:17:12;;;;;;;4.55;3.30;;;;;;;28.55;45.77;100643.41;1730140;81;21083;-81
2022/07/28 11:19:50;;;;;;;3.90;2.92;;;;;;;28.55;45.79;100647.61;1730629;81;21538;-83
2022/07/28 11:22:20;;;;;;;3.08;2.77;;;;;;;28.56;45.77;100650.59;1729913;81;21121;-83
2022/07/28 11:25:02;;;;;;;3.15;2.75;;;;;;;28.57;45.74;100649.42;1730501;81;21554;-82
2022/07/28 11:27:49;;;;;;;3.10;2.60;;;;;;;28.58;45.74;100637.64;1730018;81;20976;-82
2022/07/28 11:30:36;;;;;;;3.95;3.08;;;;;;;28.57;45.73;100634.62;1730431;82;21046;-83
2022/07/28 11:33:05;;;;;;;3.05;2.75;;;;;;;28.57;45.71;100637.41;1730077;81;21039;-82